sensor_id;sensor_type;location;lat;lon;timestamp;pressure;altitude;pressure_sealevel;temperature;humidity
12722;BME280;6425;50.316;8.114;2023-12-20T00:00:00;990;;;5.1;100
12722;BME280;6425;50.316;8.114;2023-12-20T00:03:00;990;;;5.1;100
12722;BME280;6425;50.316;8.114;2023-12-20T00:06:02;990;;;5.1;100
12722;BME280;6425;50.316;8.114;2023-12-20T00:09:00;990;;;5;100
12722;BME280;6425;50.316;8.114;2023-12-20T00:12:00;989;;;5;100
12722;BME280;6425;50.316;8.114;2023-12-20T00:15:00;990;;;5;100
12722;BME280;6425;50.316;8.114;2023-12-20T00:18:00;990;;;5;100
12722;BME280;6425;50.316;8.114;2023-12-20T00:21:00;990;;;5.1;100
12722;BME280;6425;50.316;8.114;2023-12-20T00:24:01;990;;;5.1;100
12722;BME280;6425;50.316;8.114;2023-12-20T00:27:00;990;;;5;100
12722;BME280;6425;50.316;8.114;2023-12-20T00:30:00;990;;;5;100
12722;BME280;6425;50.316;8.114;2023-12-20T00:33:00;990;;;5.1;100
12722;BME280;6425;50.316;8.114;2023-12-20T00:36:00;990;;;5.1;100
12722;BME280;6425;50.316;8.114;2023-12-20T00:39:00;989;;;5.1;100
12722;BME280;6425;50.316;8.114;2023-12-20T00:42:00;989;;;5.1;100
12722;BME280;6425;50.316;8.114;2023-12-20T00:45:00;989;;;5.1;100
12722;BME280;6425;50.316;8.114;2023-12-20T00:48:00;990;;;5.1;100
12722;BME280;6425;50.316;8.114;2023-12-20T00:51:00;989;;;5;100
12722;BME280;6425;50.316;8.114;2023-12-20T00:54:00;989;;;5;100
12722;BME280;6425;50.316;8.114;2023-12-20T00:57:00;989;;;5;100
12722;BME280;6425;50.316;8.114;2023-12-20T01:00:02;989;;;5.1;100
12722;BME280;6425;50.316;8.114;2023-12-20T01:03:00;989;;;5;100
12722;BME280;6425;50.316;8.114;2023-12-20T01:06:00;989;;;5;100
12722;BME280;6425;50.316;8.114;2023-12-20T01:09:00;989;;;5;100
12722;BME280;6425;50.316;8.114;2023-12-20T01:12:01;989;;;5.1;100
12722;BME280;6425;50.316;8.114;2023-12-20T01:15:00;989;;;5.1;100
12722;BME280;6425;50.316;8.114;2023-12-20T01:18:00;989;;;5.1;100
12722;BME280;6425;50.316;8.114;2023-12-20T01:21:01;989;;;5.1;100
12722;BME280;6425;50.316;8.114;2023-12-20T01:24:00;989;;;5;100
12722;BME280;6425;50.316;8.114;2023-12-20T01:27:00;989;;;5.1;100
12722;BME280;6425;50.316;8.114;2023-12-20T01:30:00;989;;;5.1;100
12722;BME280;6425;50.316;8.114;2023-12-20T01:33:00;990;;;5.2;100
12722;BME280;6425;50.316;8.114;2023-12-20T01:36:00;989;;;5.2;100
12722;BME280;6425;50.316;8.114;2023-12-20T01:39:00;989;;;5.1;100
12722;BME280;6425;50.316;8.114;2023-12-20T01:42:00;990;;;5.1;100
12722;BME280;6425;50.316;8.114;2023-12-20T01:45:00;989;;;5.1;100
12722;BME280;6425;50.316;8.114;2023-12-20T01:48:01;989;;;5.1;100
12722;BME280;6425;50.316;8.114;2023-12-20T01:51:00;989;;;5;100
12722;BME280;6425;50.316;8.114;2023-12-20T01:54:00;989;;;5;100
12722;BME280;6425;50.316;8.114;2023-12-20T01:57:00;989;;;5;100
12722;BME280;6425;50.316;8.114;2023-12-20T02:00:00;989;;;5;100
12722;BME280;6425;50.316;8.114;2023-12-20T02:03:00;989;;;5;100
12722;BME280;6425;50.316;8.114;2023-12-20T02:06:00;989;;;5;100
12722;BME280;6425;50.316;8.114;2023-12-20T02:09:00;989;;;5.1;100
12722;BME280;6425;50.316;8.114;2023-12-20T02:12:00;989;;;5.1;100
12722;BME280;6425;50.316;8.114;2023-12-20T02:15:00;989;;;5.1;100
12722;BME280;6425;50.316;8.114;2023-12-20T02:18:00;989;;;5.1;100
12722;BME280;6425;50.316;8.114;2023-12-20T02:21:00;989;;;5.1;100
12722;BME280;6425;50.316;8.114;2023-12-20T02:24:00;989;;;5.1;100
12722;BME280;6425;50.316;8.114;2023-12-20T02:27:00;989;;;5.1;100
12722;BME280;6425;50.316;8.114;2023-12-20T02:30:00;989;;;5.1;100
12722;BME280;6425;50.316;8.114;2023-12-20T02:33:00;989;;;5.1;100
12722;BME280;6425;50.316;8.114;2023-12-20T02:36:01;989;;;5.2;100
12722;BME280;6425;50.316;8.114;2023-12-20T02:39:00;989;;;5.1;100
12722;BME280;6425;50.316;8.114;2023-12-20T02:42:00;989;;;5.1;100
12722;BME280;6425;50.316;8.114;2023-12-20T02:45:00;989;;;5.1;100
12722;BME280;6425;50.316;8.114;2023-12-20T02:48:01;990;;;5.2;100
12722;BME280;6425;50.316;8.114;2023-12-20T02:51:00;989;;;5.2;100
12722;BME280;6425;50.316;8.114;2023-12-20T02:54:00;990;;;5.1;100
12722;BME280;6425;50.316;8.114;2023-12-20T02:57:00;990;;;5.1;100
12722;BME280;6425;50.316;8.114;2023-12-20T03:00:00;990;;;5.2;100
12722;BME280;6425;50.316;8.114;2023-12-20T03:03:00;990;;;5.3;100
12722;BME280;6425;50.316;8.114;2023-12-20T03:06:00;990;;;5.3;100
12722;BME280;6425;50.316;8.114;2023-12-20T03:09:00;990;;;5.4;100
12722;BME280;6425;50.316;8.114;2023-12-20T03:12:00;990;;;5.3;100
12722;BME280;6425;50.316;8.114;2023-12-20T03:15:00;990;;;5.3;100
12722;BME280;6425;50.316;8.114;2023-12-20T03:18:00;990;;;5.3;100
12722;BME280;6425;50.316;8.114;2023-12-20T03:21:00;990;;;5.3;100
12722;BME280;6425;50.316;8.114;2023-12-20T03:24:00;990;;;5.3;100
12722;BME280;6425;50.316;8.114;2023-12-20T03:27:00;990;;;5.3;100
12722;BME280;6425;50.316;8.114;2023-12-20T03:30:00;990;;;5.4;100
12722;BME280;6425;50.316;8.114;2023-12-20T03:33:00;990;;;5.4;100
12722;BME280;6425;50.316;8.114;2023-12-20T03:36:00;990;;;5.4;100
12722;BME280;6425;50.316;8.114;2023-12-20T03:39:00;990;;;5.5;100
12722;BME280;6425;50.316;8.114;2023-12-20T03:42:00;990;;;5.4;100
12722;BME280;6425;50.316;8.114;2023-12-20T03:45:00;990;;;5.4;100
12722;BME280;6425;50.316;8.114;2023-12-20T03:48:00;990;;;5.5;100
12722;BME280;6425;50.316;8.114;2023-12-20T03:51:00;990;;;5.5;100
12722;BME280;6425;50.316;8.114;2023-12-20T03:54:00;990;;;5.6;100
12722;BME280;6425;50.316;8.114;2023-12-20T03:57:00;990;;;5.6;100
12722;BME280;6425;50.316;8.114;2023-12-20T04:00:00;990;;;5.5;100
12722;BME280;6425;50.316;8.114;2023-12-20T04:03:00;990;;;5.4;100
12722;BME280;6425;50.316;8.114;2023-12-20T04:06:00;990;;;5.3;100
12722;BME280;6425;50.316;8.114;2023-12-20T04:09:00;990;;;5.3;100
12722;BME280;6425;50.316;8.114;2023-12-20T04:12:01;990;;;5.2;100
12722;BME280;6425;50.316;8.114;2023-12-20T04:15:00;991;;;5.1;100
12722;BME280;6425;50.316;8.114;2023-12-20T04:18:00;990;;;5;100
12722;BME280;6425;50.316;8.114;2023-12-20T04:21:00;991;;;5;99
12722;BME280;6425;50.316;8.114;2023-12-20T04:24:01;991;;;4.9;98.7
12722;BME280;6425;50.316;8.114;2023-12-20T04:27:00;991;;;4.9;98.3
12722;BME280;6425;50.316;8.114;2023-12-20T04:30:00;991;;;4.8;97.9
12722;BME280;6425;50.316;8.114;2023-12-20T04:33:00;990;;;4.8;97.8
12722;BME280;6425;50.316;8.114;2023-12-20T04:36:01;990;;;4.8;97.1
12722;BME280;6425;50.316;8.114;2023-12-20T04:39:00;991;;;4.7;96.5
12722;BME280;6425;50.316;8.114;2023-12-20T04:42:00;991;;;4.7;96.8
12722;BME280;6425;50.316;8.114;2023-12-20T04:45:00;991;;;4.6;97.1
12722;BME280;6425;50.316;8.114;2023-12-20T04:48:01;991;;;4.6;97.2
12722;BME280;6425;50.316;8.114;2023-12-20T04:51:00;991;;;4.6;97.9
12722;BME280;6425;50.316;8.114;2023-12-20T04:54:00;991;;;4.6;98.7
12722;BME280;6425;50.316;8.114;2023-12-20T04:57:00;991;;;4.6;99.3
12722;BME280;6425;50.316;8.114;2023-12-20T05:00:00;991;;;4.6;99.2
12722;BME280;6425;50.316;8.114;2023-12-20T05:03:00;991;;;4.6;98.9
12722;BME280;6425;50.316;8.114;2023-12-20T05:06:00;991;;;4.5;99.5
12722;BME280;6425;50.316;8.114;2023-12-20T05:09:00;990;;;4.5;99.3
12722;BME280;6425;50.316;8.114;2023-12-20T05:12:00;991;;;4.6;98.1
12722;BME280;6425;50.316;8.114;2023-12-20T05:15:00;991;;;4.5;98.1
12722;BME280;6425;50.316;8.114;2023-12-20T05:18:00;991;;;4.6;98.1
12722;BME280;6425;50.316;8.114;2023-12-20T05:21:00;991;;;4.5;97.9
12722;BME280;6425;50.316;8.114;2023-12-20T05:24:00;991;;;4.4;97.6
12722;BME280;6425;50.316;8.114;2023-12-20T05:27:00;991;;;4.3;98
12722;BME280;6425;50.316;8.114;2023-12-20T05:30:00;991;;;4.2;98.1
12722;BME280;6425;50.316;8.114;2023-12-20T05:33:00;991;;;4.2;98.1
12722;BME280;6425;50.316;8.114;2023-12-20T05:36:00;990;;;4.3;96.9
12722;BME280;6425;50.316;8.114;2023-12-20T05:39:00;991;;;4.4;94.8
12722;BME280;6425;50.316;8.114;2023-12-20T05:42:00;991;;;4.4;93.5
12722;BME280;6425;50.316;8.114;2023-12-20T05:45:00;991;;;4.4;92.8
12722;BME280;6425;50.316;8.114;2023-12-20T05:48:00;991;;;4.4;92.7
12722;BME280;6425;50.316;8.114;2023-12-20T05:51:00;991;;;4.3;93.8
12722;BME280;6425;50.316;8.114;2023-12-20T05:54:00;991;;;4;95.5
12722;BME280;6425;50.316;8.114;2023-12-20T05:57:00;991;;;3.9;97.1
12722;BME280;6425;50.316;8.114;2023-12-20T06:00:00;991;;;3.8;98.2
12722;BME280;6425;50.316;8.114;2023-12-20T06:03:00;990;;;3.8;99
12722;BME280;6425;50.316;8.114;2023-12-20T06:06:03;990;;;3.9;99.1
12722;BME280;6425;50.316;8.114;2023-12-20T06:09:00;990;;;3.8;98.8
12722;BME280;6425;50.316;8.114;2023-12-20T06:12:00;991;;;3.8;98.3
12722;BME280;6425;50.316;8.114;2023-12-20T06:15:00;991;;;3.8;98
12722;BME280;6425;50.316;8.114;2023-12-20T06:18:00;991;;;3.8;98
12722;BME280;6425;50.316;8.114;2023-12-20T06:21:00;991;;;3.7;98.5
12722;BME280;6425;50.316;8.114;2023-12-20T06:24:01;991;;;3.7;99
12722;BME280;6425;50.316;8.114;2023-12-20T06:27:00;991;;;3.8;98.9
12722;BME280;6425;50.316;8.114;2023-12-20T06:30:00;991;;;3.9;98.9
12722;BME280;6425;50.316;8.114;2023-12-20T06:33:00;991;;;3.9;99
12722;BME280;6425;50.316;8.114;2023-12-20T06:36:00;991;;;3.9;99
12722;BME280;6425;50.316;8.114;2023-12-20T06:39:00;991;;;3.8;99.7
12722;BME280;6425;50.316;8.114;2023-12-20T06:42:00;991;;;3.9;100
12722;BME280;6425;50.316;8.114;2023-12-20T06:45:00;991;;;3.9;100
12722;BME280;6425;50.316;8.114;2023-12-20T06:48:01;991;;;4;100
12722;BME280;6425;50.316;8.114;2023-12-20T06:51:00;991;;;3.9;100
12722;BME280;6425;50.316;8.114;2023-12-20T06:54:00;991;;;3.9;100
12722;BME280;6425;50.316;8.114;2023-12-20T06:57:00;991;;;3.9;100
12722;BME280;6425;50.316;8.114;2023-12-20T07:00:00;991;;;3.9;100
12722;BME280;6425;50.316;8.114;2023-12-20T07:03:00;991;;;3.9;100
12722;BME280;6425;50.316;8.114;2023-12-20T07:06:00;991;;;4;100
12722;BME280;6425;50.316;8.114;2023-12-20T07:09:00;991;;;4;100
12722;BME280;6425;50.316;8.114;2023-12-20T07:12:01;991;;;4.1;100
12722;BME280;6425;50.316;8.114;2023-12-20T07:15:00;991;;;4;100
12722;BME280;6425;50.316;8.114;2023-12-20T07:18:00;991;;;4.1;100
12722;BME280;6425;50.316;8.114;2023-12-20T07:21:00;991;;;4.1;98.9
12722;BME280;6425;50.316;8.114;2023-12-20T07:24:01;991;;;4.1;98.8
12722;BME280;6425;50.316;8.114;2023-12-20T07:27:00;991;;;4.2;98.6
12722;BME280;6425;50.316;8.114;2023-12-20T07:30:00;991;;;4.2;98.6
12722;BME280;6425;50.316;8.114;2023-12-20T07:33:00;991;;;4.2;98.2
12722;BME280;6425;50.316;8.114;2023-12-20T07:36:00;991;;;4.2;98.2
12722;BME280;6425;50.316;8.114;2023-12-20T07:39:00;991;;;4.2;98.2
12722;BME280;6425;50.316;8.114;2023-12-20T07:42:00;991;;;4.2;98.8
12722;BME280;6425;50.316;8.114;2023-12-20T07:45:00;991;;;4.3;98
12722;BME280;6425;50.316;8.114;2023-12-20T07:48:01;991;;;4.2;98.6
12722;BME280;6425;50.316;8.114;2023-12-20T07:51:00;991;;;4.2;98.5
12722;BME280;6425;50.316;8.114;2023-12-20T07:54:00;991;;;4.1;99
12722;BME280;6425;50.316;8.114;2023-12-20T07:57:00;991;;;4.1;99
12722;BME280;6425;50.316;8.114;2023-12-20T08:00:00;991;;;4.2;98.8
12722;BME280;6425;50.316;8.114;2023-12-20T08:03:00;991;;;4.1;99.3
12722;BME280;6425;50.316;8.114;2023-12-20T08:06:00;991;;;4.1;100
12722;BME280;6425;50.316;8.114;2023-12-20T08:09:00;991;;;4.1;100
12722;BME280;6425;50.316;8.114;2023-12-20T08:12:00;991;;;4.2;99.7
12722;BME280;6425;50.316;8.114;2023-12-20T08:15:00;991;;;4.1;99.8
12722;BME280;6425;50.316;8.114;2023-12-20T08:18:00;991;;;4.2;100
12722;BME280;6425;50.316;8.114;2023-12-20T08:21:00;991;;;4.3;99.4
12722;BME280;6425;50.316;8.114;2023-12-20T08:24:01;991;;;4.3;99.2
12722;BME280;6425;50.316;8.114;2023-12-20T08:27:00;991;;;4.3;98.9
12722;BME280;6425;50.316;8.114;2023-12-20T08:30:00;991;;;4.3;98.8
12722;BME280;6425;50.316;8.114;2023-12-20T08:33:00;991;;;4.3;99.1
12722;BME280;6425;50.316;8.114;2023-12-20T08:36:01;991;;;4.3;99
12722;BME280;6425;50.316;8.114;2023-12-20T08:39:00;991;;;4.4;98.4
12722;BME280;6425;50.316;8.114;2023-12-20T08:42:00;991;;;4.4;98.8
12722;BME280;6425;50.316;8.114;2023-12-20T08:45:00;991;;;4.4;98.9
12722;BME280;6425;50.316;8.114;2023-12-20T08:48:00;991;;;4.4;98.6
12722;BME280;6425;50.316;8.114;2023-12-20T08:51:00;991;;;4.4;99
12722;BME280;6425;50.316;8.114;2023-12-20T08:54:00;991;;;4.4;98.7
12722;BME280;6425;50.316;8.114;2023-12-20T08:57:00;991;;;4.4;98.5
12722;BME280;6425;50.316;8.114;2023-12-20T09:00:00;991;;;4.4;98.8
12722;BME280;6425;50.316;8.114;2023-12-20T09:03:01;991;;;4.5;98.8
12722;BME280;6425;50.316;8.114;2023-12-20T09:06:00;991;;;4.6;98.2
12722;BME280;6425;50.316;8.114;2023-12-20T09:09:00;991;;;4.6;97.9
12722;BME280;6425;50.316;8.114;2023-12-20T09:12:00;991;;;4.5;98.7
12722;BME280;6425;50.316;8.114;2023-12-20T09:15:00;991;;;4.6;99.2
12722;BME280;6425;50.316;8.114;2023-12-20T09:18:00;991;;;4.6;99.3
12722;BME280;6425;50.316;8.114;2023-12-20T09:21:00;991;;;4.7;98.9
12722;BME280;6425;50.316;8.114;2023-12-20T09:24:00;991;;;4.6;98.4
12722;BME280;6425;50.316;8.114;2023-12-20T09:27:00;991;;;4.7;98.1
12722;BME280;6425;50.316;8.114;2023-12-20T09:30:00;991;;;4.7;98.2
12722;BME280;6425;50.316;8.114;2023-12-20T09:33:00;992;;;4.7;97.3
12722;BME280;6425;50.316;8.114;2023-12-20T09:36:02;992;;;4.8;98
12722;BME280;6425;50.316;8.114;2023-12-20T09:39:00;991;;;4.8;97.8
12722;BME280;6425;50.316;8.114;2023-12-20T09:42:00;991;;;4.8;97.8
12722;BME280;6425;50.316;8.114;2023-12-20T09:45:00;992;;;4.9;98.4
12722;BME280;6425;50.316;8.114;2023-12-20T09:48:00;992;;;4.9;98.2
12722;BME280;6425;50.316;8.114;2023-12-20T09:51:00;992;;;4.9;97.6
12722;BME280;6425;50.316;8.114;2023-12-20T09:54:00;992;;;4.9;96.6
12722;BME280;6425;50.316;8.114;2023-12-20T09:57:00;992;;;5;96.1
12722;BME280;6425;50.316;8.114;2023-12-20T10:00:00;992;;;5;96.9
12722;BME280;6425;50.316;8.114;2023-12-20T10:03:00;991;;;5;96.2
12722;BME280;6425;50.316;8.114;2023-12-20T10:06:00;991;;;4.9;95.9
12722;BME280;6425;50.316;8.114;2023-12-20T10:09:00;991;;;5;96.4
12722;BME280;6425;50.316;8.114;2023-12-20T10:12:00;991;;;5;96
12722;BME280;6425;50.316;8.114;2023-12-20T10:15:00;991;;;5.1;96
12722;BME280;6425;50.316;8.114;2023-12-20T10:18:00;991;;;5.2;94.7
12722;BME280;6425;50.316;8.114;2023-12-20T10:21:00;991;;;5.2;94
12722;BME280;6425;50.316;8.114;2023-12-20T10:24:00;991;;;5.3;94.8
12722;BME280;6425;50.316;8.114;2023-12-20T10:27:01;991;;;5.3;93.5
12722;BME280;6425;50.316;8.114;2023-12-20T10:30:00;991;;;5.4;93.4
12722;BME280;6425;50.316;8.114;2023-12-20T10:33:00;991;;;5.4;91.6
12722;BME280;6425;50.316;8.114;2023-12-20T10:36:00;991;;;5.4;90.7
12722;BME280;6425;50.316;8.114;2023-12-20T10:39:00;991;;;5.3;92.2
12722;BME280;6425;50.316;8.114;2023-12-20T10:42:00;991;;;5.4;91.2
12722;BME280;6425;50.316;8.114;2023-12-20T10:45:00;991;;;5.3;89
12722;BME280;6425;50.316;8.114;2023-12-20T10:48:02;991;;;5.4;89.5
12722;BME280;6425;50.316;8.114;2023-12-20T10:51:01;991;;;5.5;89.7
12722;BME280;6425;50.316;8.114;2023-12-20T10:54:00;991;;;5.6;89.6
12722;BME280;6425;50.316;8.114;2023-12-20T10:57:00;991;;;5.6;89.4
12722;BME280;6425;50.316;8.114;2023-12-20T11:00:00;991;;;5.6;88.1
12722;BME280;6425;50.316;8.114;2023-12-20T11:03:00;991;;;5.6;88.5
12722;BME280;6425;50.316;8.114;2023-12-20T11:06:01;991;;;5.5;87.6
12722;BME280;6425;50.316;8.114;2023-12-20T11:09:01;991;;;5.5;87
12722;BME280;6425;50.316;8.114;2023-12-20T11:12:02;991;;;5.5;86.9
12722;BME280;6425;50.316;8.114;2023-12-20T11:15:00;991;;;5.6;86.9
12722;BME280;6425;50.316;8.114;2023-12-20T11:18:00;991;;;5.6;85.9
12722;BME280;6425;50.316;8.114;2023-12-20T11:21:00;991;;;5.6;86.9
12722;BME280;6425;50.316;8.114;2023-12-20T11:24:00;991;;;5.5;86.7
12722;BME280;6425;50.316;8.114;2023-12-20T11:27:00;991;;;5.6;86.9
12722;BME280;6425;50.316;8.114;2023-12-20T11:30:00;991;;;5.6;85.8
12722;BME280;6425;50.316;8.114;2023-12-20T11:33:00;991;;;5.6;84.7
12722;BME280;6425;50.316;8.114;2023-12-20T11:36:00;991;;;5.6;84.5
12722;BME280;6425;50.316;8.114;2023-12-20T11:39:00;991;;;5.6;84.9
12722;BME280;6425;50.316;8.114;2023-12-20T11:42:04;991;;;5.5;84
12722;BME280;6425;50.316;8.114;2023-12-20T11:45:01;991;;;5.5;84.6
12722;BME280;6425;50.316;8.114;2023-12-20T11:48:00;991;;;5.5;84.8
12722;BME280;6425;50.316;8.114;2023-12-20T11:51:01;990;;;5.5;85.4
12722;BME280;6425;50.316;8.114;2023-12-20T11:54:00;990;;;5.5;85.8
12722;BME280;6425;50.316;8.114;2023-12-20T11:57:00;990;;;5.5;87.3
12722;BME280;6425;50.316;8.114;2023-12-20T12:00:00;990;;;5.4;86.7
12722;BME280;6425;50.316;8.114;2023-12-20T12:03:00;990;;;5.3;87.3
12722;BME280;6425;50.316;8.114;2023-12-20T12:06:00;990;;;5.4;88.4
12722;BME280;6425;50.316;8.114;2023-12-20T12:09:00;990;;;5.5;89.4
12722;BME280;6425;50.316;8.114;2023-12-20T12:12:00;990;;;5.4;88.7
12722;BME280;6425;50.316;8.114;2023-12-20T12:15:00;990;;;5.4;89.8
12722;BME280;6425;50.316;8.114;2023-12-20T12:18:00;991;;;5.5;91
12722;BME280;6425;50.316;8.114;2023-12-20T12:21:00;991;;;5.4;90.1
12722;BME280;6425;50.316;8.114;2023-12-20T12:24:07;991;;;5.4;90.8
12722;BME280;6425;50.316;8.114;2023-12-20T12:27:00;991;;;5.3;92.4
12722;BME280;6425;50.316;8.114;2023-12-20T12:30:00;990;;;5.3;94.8
12722;BME280;6425;50.316;8.114;2023-12-20T12:33:00;990;;;5.3;93.2
12722;BME280;6425;50.316;8.114;2023-12-20T12:36:00;990;;;5.3;93.6
12722;BME280;6425;50.316;8.114;2023-12-20T12:39:01;990;;;5.2;93.1
12722;BME280;6425;50.316;8.114;2023-12-20T12:42:00;990;;;5.2;94.6
12722;BME280;6425;50.316;8.114;2023-12-20T12:45:00;990;;;5.2;95.2
12722;BME280;6425;50.316;8.114;2023-12-20T12:48:00;990;;;5.2;95.3
12722;BME280;6425;50.316;8.114;2023-12-20T12:51:00;990;;;5.3;95.7
12722;BME280;6425;50.316;8.114;2023-12-20T12:54:00;990;;;5.3;95.3
12722;BME280;6425;50.316;8.114;2023-12-20T12:57:00;990;;;5.4;95.3
12722;BME280;6425;50.316;8.114;2023-12-20T13:00:00;990;;;5.5;94.3
12722;BME280;6425;50.316;8.114;2023-12-20T13:03:00;990;;;5.4;93.8
12722;BME280;6425;50.316;8.114;2023-12-20T13:06:00;990;;;5.5;94.5
12722;BME280;6425;50.316;8.114;2023-12-20T13:09:00;990;;;5.5;94.2
12722;BME280;6425;50.316;8.114;2023-12-20T13:12:00;990;;;5.5;93.6
12722;BME280;6425;50.316;8.114;2023-12-20T13:15:00;990;;;5.5;93.7
12722;BME280;6425;50.316;8.114;2023-12-20T13:18:00;990;;;5.5;94.2
12722;BME280;6425;50.316;8.114;2023-12-20T13:21:00;990;;;5.4;93
12722;BME280;6425;50.316;8.114;2023-12-20T13:24:00;990;;;5.6;94
12722;BME280;6425;50.316;8.114;2023-12-20T13:27:00;990;;;5.5;92.9
12722;BME280;6425;50.316;8.114;2023-12-20T13:30:00;990;;;5.6;92.7
12722;BME280;6425;50.316;8.114;2023-12-20T13:33:00;990;;;5.7;92.2
12722;BME280;6425;50.316;8.114;2023-12-20T13:36:00;990;;;5.7;92.5
12722;BME280;6425;50.316;8.114;2023-12-20T13:39:00;989;;;5.6;91.1
12722;BME280;6425;50.316;8.114;2023-12-20T13:42:00;990;;;5.6;92
12722;BME280;6425;50.316;8.114;2023-12-20T13:45:00;989;;;5.6;92.1
12722;BME280;6425;50.316;8.114;2023-12-20T13:48:00;989;;;5.6;91.7
12722;BME280;6425;50.316;8.114;2023-12-20T13:51:00;989;;;5.7;91.5
12722;BME280;6425;50.316;8.114;2023-12-20T13:54:00;989;;;5.7;90.9
12722;BME280;6425;50.316;8.114;2023-12-20T13:57:00;989;;;5.7;91.9
12722;BME280;6425;50.316;8.114;2023-12-20T14:00:00;989;;;5.6;91.6
12722;BME280;6425;50.316;8.114;2023-12-20T14:03:00;989;;;5.6;92.4
12722;BME280;6425;50.316;8.114;2023-12-20T14:06:00;989;;;5.6;91.4
12722;BME280;6425;50.316;8.114;2023-12-20T14:09:00;989;;;5.6;91.3
12722;BME280;6425;50.316;8.114;2023-12-20T14:12:00;989;;;5.6;91.4
12722;BME280;6425;50.316;8.114;2023-12-20T14:15:00;989;;;5.6;90.8
12722;BME280;6425;50.316;8.114;2023-12-20T14:18:00;989;;;5.6;91.1
12722;BME280;6425;50.316;8.114;2023-12-20T14:21:00;989;;;5.6;91.1
12722;BME280;6425;50.316;8.114;2023-12-20T14:24:00;989;;;5.7;90.6
12722;BME280;6425;50.316;8.114;2023-12-20T14:27:00;989;;;5.7;90.8
12722;BME280;6425;50.316;8.114;2023-12-20T14:30:00;989;;;5.7;91.1
12722;BME280;6425;50.316;8.114;2023-12-20T14:33:00;989;;;5.6;91.2
12722;BME280;6425;50.316;8.114;2023-12-20T14:36:00;989;;;5.6;91.1
12722;BME280;6425;50.316;8.114;2023-12-20T14:39:00;989;;;5.5;91.3
12722;BME280;6425;50.316;8.114;2023-12-20T14:42:00;989;;;5.5;91.5
12722;BME280;6425;50.316;8.114;2023-12-20T14:45:00;989;;;5.4;92
12722;BME280;6425;50.316;8.114;2023-12-20T14:48:00;989;;;5.4;92
12722;BME280;6425;50.316;8.114;2023-12-20T14:51:00;989;;;5.4;92.1
12722;BME280;6425;50.316;8.114;2023-12-20T14:54:00;989;;;5.3;92.4
12722;BME280;6425;50.316;8.114;2023-12-20T14:57:00;989;;;5.3;92.4
12722;BME280;6425;50.316;8.114;2023-12-20T15:00:00;989;;;5.3;92.9
12722;BME280;6425;50.316;8.114;2023-12-20T15:03:00;989;;;5.2;94.1
12722;BME280;6425;50.316;8.114;2023-12-20T15:06:00;989;;;5.3;93.7
12722;BME280;6425;50.316;8.114;2023-12-20T15:09:00;989;;;5.3;93.1
12722;BME280;6425;50.316;8.114;2023-12-20T15:12:00;989;;;5.3;93.6
12722;BME280;6425;50.316;8.114;2023-12-20T15:15:00;989;;;5.3;93.7
12722;BME280;6425;50.316;8.114;2023-12-20T15:18:00;989;;;5.3;93.8
12722;BME280;6425;50.316;8.114;2023-12-20T15:21:00;989;;;5.3;93.8
12722;BME280;6425;50.316;8.114;2023-12-20T15:24:00;989;;;5.3;94.4
12722;BME280;6425;50.316;8.114;2023-12-20T15:27:00;989;;;5.3;94.3
12722;BME280;6425;50.316;8.114;2023-12-20T15:30:00;989;;;5.3;94.3
12722;BME280;6425;50.316;8.114;2023-12-20T15:33:00;989;;;5.3;94.8
12722;BME280;6425;50.316;8.114;2023-12-20T15:36:00;989;;;5.3;94.9
12722;BME280;6425;50.316;8.114;2023-12-20T15:39:00;989;;;5.3;94.9
12722;BME280;6425;50.316;8.114;2023-12-20T15:51:20;989;;;5.3;95.1
12722;BME280;6425;50.316;8.114;2023-12-20T15:51:20;989;;;5.3;95.1
12722;BME280;6425;50.316;8.114;2023-12-20T15:51:21;989;;;5.3;95.1
12722;BME280;6425;50.316;8.114;2023-12-20T15:51:21;989;;;5.3;95.1
12722;BME280;6425;50.316;8.114;2023-12-20T15:54:00;989;;;5.2;97
12722;BME280;6425;50.316;8.114;2023-12-20T15:57:00;989;;;5.3;96.3
12722;BME280;6425;50.316;8.114;2023-12-20T16:00:00;989;;;5.3;96.2
12722;BME280;6425;50.316;8.114;2023-12-20T16:03:01;989;;;5.3;96
12722;BME280;6425;50.316;8.114;2023-12-20T16:06:00;989;;;5.4;95.5
12722;BME280;6425;50.316;8.114;2023-12-20T16:09:00;989;;;5.4;95.5
12722;BME280;6425;50.316;8.114;2023-12-20T16:12:00;989;;;5.5;94.6
12722;BME280;6425;50.316;8.114;2023-12-20T16:15:00;989;;;5.5;94.2
12722;BME280;6425;50.316;8.114;2023-12-20T16:18:00;989;;;5.5;94.6
12722;BME280;6425;50.316;8.114;2023-12-20T16:21:00;989;;;5.5;94.3
12722;BME280;6425;50.316;8.114;2023-12-20T16:24:00;989;;;5.5;94.4
12722;BME280;6425;50.316;8.114;2023-12-20T16:27:00;989;;;5.6;93.9
12722;BME280;6425;50.316;8.114;2023-12-20T16:30:00;989;;;5.5;94.3
12722;BME280;6425;50.316;8.114;2023-12-20T16:33:00;989;;;5.6;94.1
12722;BME280;6425;50.316;8.114;2023-12-20T16:36:00;989;;;5.5;94.6
12722;BME280;6425;50.316;8.114;2023-12-20T16:39:00;989;;;5.5;94.4
12722;BME280;6425;50.316;8.114;2023-12-20T16:42:00;989;;;5.6;94.1
12722;BME280;6425;50.316;8.114;2023-12-20T16:45:00;989;;;5.6;94
12722;BME280;6425;50.316;8.114;2023-12-20T16:48:00;989;;;5.6;94.4
12722;BME280;6425;50.316;8.114;2023-12-20T16:51:00;989;;;5.6;94.2
12722;BME280;6425;50.316;8.114;2023-12-20T16:54:00;989;;;5.6;94.3
12722;BME280;6425;50.316;8.114;2023-12-20T16:57:00;989;;;5.6;94.2
12722;BME280;6425;50.316;8.114;2023-12-20T17:00:00;989;;;5.6;94.3
12722;BME280;6425;50.316;8.114;2023-12-20T17:03:00;989;;;5.6;94.6
12722;BME280;6425;50.316;8.114;2023-12-20T17:06:00;989;;;5.4;96.1
12722;BME280;6425;50.316;8.114;2023-12-20T17:09:00;989;;;5.3;97.5
12722;BME280;6425;50.316;8.114;2023-12-20T17:12:00;989;;;5.3;98.7
12722;BME280;6425;50.316;8.114;2023-12-20T17:15:00;989;;;5.4;98.6
12722;BME280;6425;50.316;8.114;2023-12-20T17:18:00;989;;;5.3;99.1
12722;BME280;6425;50.316;8.114;2023-12-20T17:21:00;989;;;5.4;99
12722;BME280;6425;50.316;8.114;2023-12-20T17:24:00;989;;;5.4;98.8
12722;BME280;6425;50.316;8.114;2023-12-20T17:27:00;989;;;5.4;98.8
12722;BME280;6425;50.316;8.114;2023-12-20T17:30:00;989;;;5.4;99.1
12722;BME280;6425;50.316;8.114;2023-12-20T17:33:00;989;;;5.4;99
12722;BME280;6425;50.316;8.114;2023-12-20T17:36:00;989;;;5.4;98.9
12722;BME280;6425;50.316;8.114;2023-12-20T17:39:01;989;;;5.4;98.9
12722;BME280;6425;50.316;8.114;2023-12-20T17:42:00;989;;;5.5;98.5
12722;BME280;6425;50.316;8.114;2023-12-20T17:45:00;989;;;5.4;98.2
12722;BME280;6425;50.316;8.114;2023-12-20T17:48:00;989;;;5.4;99
12722;BME280;6425;50.316;8.114;2023-12-20T17:51:00;989;;;5.4;99.1
12722;BME280;6425;50.316;8.114;2023-12-20T17:54:00;989;;;5.4;99.8
12722;BME280;6425;50.316;8.114;2023-12-20T17:57:00;989;;;5.4;100
12722;BME280;6425;50.316;8.114;2023-12-20T18:00:09;989;;;5.3;100
12722;BME280;6425;50.316;8.114;2023-12-20T18:03:00;989;;;5.3;100
12722;BME280;6425;50.316;8.114;2023-12-20T18:06:00;989;;;5.3;100
12722;BME280;6425;50.316;8.114;2023-12-20T18:09:00;989;;;5.2;100
12722;BME280;6425;50.316;8.114;2023-12-20T18:12:00;989;;;5.2;100